createdAt,value
2016-08-10T00:00:05.425Z,61.8
2016-08-10T00:00:15.431Z,62.1
2016-08-10T00:00:25.435Z,62.2
2016-08-10T00:00:35.441Z,62
2016-08-10T00:00:45.447Z,62
2016-08-10T00:00:55.454Z,62
2016-08-10T00:01:05.458Z,61.9
2016-08-10T00:01:15.464Z,61.9
2016-08-10T00:01:25.467Z,62.1
2016-08-10T00:01:35.477Z,62
2016-08-10T00:01:45.479Z,62
2016-08-10T00:01:55.485Z,62
2016-08-10T00:02:05.492Z,61.9
2016-08-10T00:02:15.497Z,61.8
2016-08-10T00:02:25.500Z,61.5
2016-08-10T00:02:35.511Z,61.8
2016-08-10T00:02:45.514Z,61.9
2016-08-10T00:02:55.518Z,61.6
2016-08-10T00:03:05.526Z,61.5
2016-08-10T00:03:15.536Z,62
2016-08-10T00:03:25.536Z,61.7
2016-08-10T00:03:35.540Z,62
2016-08-10T00:03:45.547Z,62
2016-08-10T00:03:55.554Z,61.9
2016-08-10T00:04:05.555Z,62
2016-08-10T00:04:15.564Z,61.8
2016-08-10T00:04:25.567Z,61.9
2016-08-10T00:04:35.575Z,62
2016-08-10T00:04:45.579Z,61.6
2016-08-10T00:04:55.584Z,61.6
2016-08-10T00:05:05.590Z,61.7
2016-08-10T00:05:15.596Z,61.6
2016-08-10T00:05:24.874Z,61.4
2016-08-10T00:05:35.605Z,61.6
2016-08-10T00:05:45.614Z,61.5
2016-08-10T00:05:55.617Z,61.6
2016-08-10T00:06:05.622Z,61.7
2016-08-10T00:06:15.628Z,61.6
2016-08-10T00:06:25.633Z,61.5
2016-08-10T00:06:35.640Z,61.6
2016-08-10T00:06:44.912Z,61.2
2016-08-10T00:06:55.652Z,61.6
2016-08-10T00:07:05.660Z,61.3
2016-08-10T00:07:15.662Z,61.5
2016-08-10T00:07:35.672Z,61.3
2016-08-10T00:07:45.679Z,61.7
2016-08-10T00:07:55.684Z,61.7
2016-08-10T00:08:05.692Z,61.6
2016-08-10T00:08:15.696Z,61.5
2016-08-10T00:08:25.700Z,61.7
2016-08-10T00:08:35.704Z,61.4
2016-08-10T00:08:45.711Z,61.3
2016-08-10T00:08:55.715Z,61.4
2016-08-10T00:09:05.722Z,61.9
2016-08-10T00:09:15.730Z,61.9
2016-08-10T00:09:25.736Z,61.7
2016-08-10T00:09:35.738Z,61.6
2016-08-10T00:09:45.745Z,61.3
2016-08-10T00:09:55.748Z,61.4
2016-08-10T00:10:05.758Z,61.5
2016-08-10T00:10:15.765Z,61.5
2016-08-10T00:10:25.768Z,61.6
2016-08-10T00:10:35.771Z,61.5
2016-08-10T00:10:45.778Z,61.6
2016-08-10T00:10:55.783Z,61.5
2016-08-10T00:11:05.795Z,61.6
2016-08-10T00:11:15.793Z,61.4
2016-08-10T00:11:25.803Z,61.4
2016-08-10T00:11:35.805Z,61.5
2016-08-10T00:11:45.812Z,61.7
2016-08-10T00:11:55.085Z,61.3
2016-08-10T00:12:05.821Z,61.5
2016-08-10T00:12:15.828Z,61.6
2016-08-10T00:12:25.833Z,61.6
2016-08-10T00:12:35.842Z,61.2
2016-08-10T00:12:45.844Z,61.6
2016-08-10T00:12:55.851Z,61.6
2016-08-10T00:13:05.855Z,61.6
2016-08-10T00:13:15.861Z,61.5
2016-08-10T00:13:25.866Z,61.8
2016-08-10T00:13:35.873Z,61.6
2016-08-10T00:13:45.878Z,61.6
2016-08-10T00:13:55.881Z,61.6
2016-08-10T00:14:05.888Z,61.4
2016-08-10T00:14:15.895Z,61.7
2016-08-10T00:14:25.898Z,61.6
2016-08-10T00:14:35.905Z,61.7
2016-08-10T00:14:45.909Z,61.6
2016-08-10T00:14:55.917Z,61.6
2016-08-10T00:15:05.922Z,61.8
2016-08-10T00:15:15.927Z,61.5
2016-08-10T00:15:25.930Z,61.7
2016-08-10T00:15:35.939Z,61.6
2016-08-10T00:15:45.943Z,61.7
2016-08-10T00:15:55.949Z,61.5
2016-08-10T00:16:05.953Z,61.4
2016-08-10T00:16:15.962Z,61.8
2016-08-10T00:16:25.971Z,61.6
2016-08-10T00:16:35.971Z,61.7
2016-08-10T00:16:45.976Z,61.7
2016-08-10T00:16:55.983Z,61.8
2016-08-10T00:17:05.992Z,61.7
2016-08-10T00:17:15.992Z,61.7
2016-08-10T00:17:25.999Z,61.6
2016-08-10T00:17:36.006Z,61.7
2016-08-10T00:17:46.016Z,61.7
2016-08-10T00:17:56.022Z,61.6
2016-08-10T00:18:06.020Z,61.9
2016-08-10T00:18:16.026Z,61.7
2016-08-10T00:18:26.030Z,61.5
2016-08-10T00:18:36.043Z,61.9
2016-08-10T00:18:46.042Z,61.5
2016-08-10T00:18:56.047Z,61.8
2016-08-10T00:19:06.056Z,61.8
2016-08-10T00:19:16.058Z,61.9
2016-08-10T00:19:26.069Z,61.8
2016-08-10T00:19:36.070Z,61.7
2016-08-10T00:19:56.080Z,61.6
2016-08-10T00:20:06.085Z,61.1
2016-08-10T00:20:15.361Z,61.1
2016-08-10T00:20:26.096Z,61.5
2016-08-10T00:20:36.099Z,61.2
2016-08-10T00:20:46.110Z,61.7
2016-08-10T00:20:56.112Z,61.8
2016-08-10T00:21:06.119Z,61.9
2016-08-10T00:21:15.396Z,61.7
2016-08-10T00:21:26.127Z,61.7
2016-08-10T00:21:36.146Z,61.5
2016-08-10T00:21:46.142Z,61.5
2016-08-10T00:21:56.151Z,61.8
2016-08-10T00:22:06.154Z,61.7
2016-08-10T00:22:16.165Z,61.8
2016-08-10T00:22:36.171Z,61.6
2016-08-10T00:22:46.185Z,61.5
2016-08-10T00:22:56.183Z,61.5
2016-08-10T00:23:06.186Z,61.7
2016-08-10T00:23:16.191Z,61.6
2016-08-10T00:23:26.195Z,61.7
2016-08-10T00:23:35.472Z,61.7
2016-08-10T00:23:46.212Z,61.9
2016-08-10T00:23:56.214Z,61.7
2016-08-10T00:24:06.216Z,61.9
2016-08-10T00:24:16.227Z,61.9
2016-08-10T00:24:26.236Z,61.8
2016-08-10T00:24:36.236Z,61.8
2016-08-10T00:24:46.241Z,61.7
2016-08-10T00:24:56.255Z,61.9
2016-08-10T00:25:06.251Z,61.7
2016-08-10T00:25:16.256Z,61.5
2016-08-10T00:25:26.262Z,61.7
2016-08-10T00:25:36.270Z,61.6
2016-08-10T00:25:46.273Z,61.5
2016-08-10T00:25:56.278Z,61.6
2016-08-10T00:26:06.285Z,61.5
2016-08-10T00:26:16.289Z,61.7
2016-08-10T00:26:26.295Z,61.6
2016-08-10T00:26:36.344Z,61.5
2016-08-10T00:26:46.306Z,61.6
2016-08-10T00:26:56.311Z,61.6
2016-08-10T00:27:06.320Z,61.7
2016-08-10T00:27:16.322Z,61.6
2016-08-10T00:27:26.335Z,61.7
2016-08-10T00:27:36.333Z,61.8
2016-08-10T00:27:46.340Z,61.8
2016-08-10T00:27:56.349Z,61.8
2016-08-10T00:28:06.356Z,61.7
2016-08-10T00:28:15.627Z,61.7
2016-08-10T00:28:26.360Z,61.7
2016-08-10T00:28:36.366Z,61.6
2016-08-10T00:28:46.372Z,61.6
2016-08-10T00:28:56.377Z,61.5
2016-08-10T00:29:06.385Z,61.6
2016-08-10T00:29:16.389Z,61.6
2016-08-10T00:29:26.395Z,61.6
2016-08-10T00:29:36.402Z,61.6
2016-08-10T00:29:46.411Z,61.6
2016-08-10T00:29:56.409Z,61.7
2016-08-10T00:30:06.416Z,61.6
2016-08-10T00:30:15.694Z,61.6
2016-08-10T00:30:25.698Z,61.6
2016-08-10T00:30:36.433Z,61.9
2016-08-10T00:30:46.441Z,61.3
2016-08-10T00:30:56.444Z,61.3
2016-08-10T00:31:05.720Z,61.7
2016-08-10T00:31:16.455Z,61.7
2016-08-10T00:31:26.461Z,61.7
2016-08-10T00:31:36.468Z,62
2016-08-10T00:31:46.472Z,61.2
2016-08-10T00:31:56.478Z,61.8
2016-08-10T00:32:06.485Z,61.6
2016-08-10T00:32:16.496Z,61.8
2016-08-10T00:32:26.495Z,61.4
2016-08-10T00:32:36.499Z,61.2
2016-08-10T00:32:46.506Z,62
2016-08-10T00:32:56.517Z,61.9
2016-08-10T00:33:06.522Z,61.7
2016-08-10T00:33:16.527Z,61.6
2016-08-10T00:33:26.528Z,60.9
2016-08-10T00:33:36.533Z,61
2016-08-10T00:33:46.540Z,61
2016-08-10T00:33:56.547Z,60.9
2016-08-10T00:34:06.548Z,61
2016-08-10T00:34:16.554Z,61.2
2016-08-10T00:34:26.559Z,60.8
2016-08-10T00:34:36.567Z,60.8
2016-08-10T00:34:46.572Z,61
2016-08-10T00:34:56.577Z,60.8
2016-08-10T00:35:06.581Z,60.6
2016-08-10T00:35:16.587Z,61.1
2016-08-10T00:35:26.594Z,61.1
2016-08-10T00:35:36.598Z,61.1
2016-08-10T00:35:46.604Z,61
2016-08-10T00:35:56.611Z,61.2
2016-08-10T00:36:06.625Z,60.8
2016-08-10T00:36:16.620Z,60.9
2016-08-10T00:36:26.628Z,60.7
2016-08-10T00:36:36.630Z,61
2016-08-10T00:36:46.642Z,60.7
2016-08-10T00:36:56.640Z,60.8
2016-08-10T00:37:06.649Z,61
2016-08-10T00:37:16.656Z,61
2016-08-10T00:37:26.662Z,60.6
2016-08-10T00:37:46.671Z,60.7
2016-08-10T00:37:56.674Z,61
2016-08-10T00:38:06.682Z,60.5
2016-08-10T00:38:16.688Z,60.6
2016-08-10T00:38:26.696Z,60.9
2016-08-10T00:38:36.698Z,60.8
2016-08-10T00:38:46.703Z,60.8
2016-08-10T00:38:56.709Z,60.9
2016-08-10T00:39:06.718Z,60.9
2016-08-10T00:39:16.719Z,61
2016-08-10T00:39:26.729Z,60.8
2016-08-10T00:39:36.730Z,60.8
2016-08-10T00:39:46.739Z,60.8
2016-08-10T00:39:56.742Z,60.9
2016-08-10T00:40:06.748Z,60.8
2016-08-10T00:40:16.754Z,60.9
2016-08-10T00:40:26.757Z,60.7
2016-08-10T00:40:36.764Z,60.6
2016-08-10T00:40:46.767Z,60.9
2016-08-10T00:40:56.774Z,60.6
2016-08-10T00:41:06.780Z,60.8
2016-08-10T00:41:16.785Z,60.9
2016-08-10T00:41:26.803Z,60.8
2016-08-10T00:41:36.801Z,60.7
2016-08-10T00:41:46.802Z,60.9
2016-08-10T00:41:56.808Z,60.7
2016-08-10T00:42:06.812Z,60.9
2016-08-10T00:42:16.088Z,60.7
2016-08-10T00:42:26.822Z,60.7
2016-08-10T00:42:36.830Z,60.9
2016-08-10T00:42:46.108Z,60.8
2016-08-10T00:42:56.840Z,60.7
2016-08-10T00:43:06.849Z,60.7
2016-08-10T00:43:16.858Z,60.8
2016-08-10T00:43:26.857Z,60.9
2016-08-10T00:43:36.861Z,60.7
2016-08-10T00:43:46.871Z,60.9
2016-08-10T00:43:56.148Z,60.8
2016-08-10T00:44:06.879Z,60.9
2016-08-10T00:44:16.887Z,60.8
2016-08-10T00:44:26.889Z,60.7
2016-08-10T00:44:36.896Z,60.7
2016-08-10T00:44:46.902Z,60.7
2016-08-10T00:44:56.906Z,60.8
2016-08-10T00:45:06.915Z,60.6
2016-08-10T00:45:16.919Z,60.5
2016-08-10T00:45:26.924Z,60.5
2016-08-10T00:45:36.201Z,60.7
2016-08-10T00:45:46.937Z,60.6
2016-08-10T00:45:56.938Z,60.5
2016-08-10T00:46:06.946Z,60.7
2016-08-10T00:46:16.951Z,60.5
2016-08-10T00:46:26.954Z,60.7
2016-08-10T00:46:36.964Z,60.5
2016-08-10T00:46:46.976Z,60.4
2016-08-10T00:46:56.975Z,60.6
2016-08-10T00:47:06.978Z,60.6
2016-08-10T00:47:16.982Z,60.5
2016-08-10T00:47:26.998Z,60.7
2016-08-10T00:47:36.996Z,60.7
2016-08-10T00:47:47.000Z,60.7
2016-08-10T00:47:57.005Z,60.5
2016-08-10T00:48:07.012Z,60.5
2016-08-10T00:48:17.018Z,60.7
2016-08-10T00:48:27.022Z,60.7
2016-08-10T00:48:37.030Z,60.6
2016-08-10T00:48:47.033Z,60.8
2016-08-10T00:48:57.038Z,60.5
2016-08-10T00:49:07.044Z,60.7
2016-08-10T00:49:17.048Z,60.8
2016-08-10T00:49:27.062Z,60.9
2016-08-10T00:49:37.061Z,60.7
2016-08-10T00:49:47.068Z,60.7
2016-08-10T00:49:57.072Z,60.7
2016-08-10T00:50:07.079Z,60.9
2016-08-10T00:50:17.084Z,60.9
2016-08-10T00:50:27.088Z,60.8
2016-08-10T00:50:37.094Z,60.3
2016-08-10T00:50:47.099Z,60.1
2016-08-10T00:50:57.104Z,60.2
2016-08-10T00:51:07.112Z,60.1
2016-08-10T00:51:17.115Z,60
2016-08-10T00:51:27.122Z,60.1
2016-08-10T00:51:37.126Z,60.5
2016-08-10T00:51:47.129Z,60.4
2016-08-10T00:51:56.407Z,60.4
2016-08-10T00:52:07.144Z,60.6
2016-08-10T00:52:17.148Z,60.7
2016-08-10T00:52:27.155Z,60.8
2016-08-10T00:52:47.172Z,60.9
2016-08-10T00:52:57.169Z,60.7
2016-08-10T00:53:07.175Z,60.4
2016-08-10T00:53:17.186Z,60.5
2016-08-10T00:53:27.187Z,60.9
2016-08-10T00:53:37.197Z,60.2
2016-08-10T00:53:47.197Z,60.7
2016-08-10T00:53:57.206Z,60.2
2016-08-10T00:54:07.213Z,60.4
2016-08-10T00:54:17.217Z,60.3
2016-08-10T00:54:27.222Z,60.6
2016-08-10T00:54:37.227Z,60.4
2016-08-10T00:54:47.232Z,60.8
2016-08-10T00:54:57.252Z,60.5
2016-08-10T00:55:07.243Z,60.4
2016-08-10T00:55:17.248Z,60.8
2016-08-10T00:55:27.255Z,60.6
2016-08-10T00:55:37.259Z,60.7
2016-08-10T00:55:47.263Z,60.8
2016-08-10T00:55:57.271Z,60.8
2016-08-10T00:56:06.547Z,60.5
2016-08-10T00:56:17.285Z,60.5
2016-08-10T00:56:27.290Z,60.7
2016-08-10T00:56:37.293Z,60.8
2016-08-10T00:56:47.297Z,60.6
2016-08-10T00:56:57.303Z,60.7
2016-08-10T00:57:07.314Z,60.8
2016-08-10T00:57:17.313Z,60.6
2016-08-10T00:57:27.321Z,60.6
2016-08-10T00:57:37.333Z,60.6
2016-08-10T00:57:47.332Z,60.5
2016-08-10T00:57:57.336Z,60.6
2016-08-10T00:58:07.342Z,60.5
2016-08-10T00:58:17.347Z,60.6
2016-08-10T00:58:27.356Z,60.6
2016-08-10T00:58:37.358Z,60.6
2016-08-10T00:58:47.367Z,60.6
2016-08-10T00:58:57.370Z,60.8
2016-08-10T00:59:07.374Z,60.8
2016-08-10T00:59:17.381Z,60.7
2016-08-10T00:59:27.387Z,60.7
2016-08-10T00:59:37.392Z,60.7
2016-08-10T00:59:47.398Z,60.7
2016-08-10T00:59:57.402Z,60.6
2016-08-10T01:00:07.407Z,60.7
2016-08-10T01:00:17.412Z,60.6
2016-08-10T01:00:27.421Z,60.7
2016-08-10T01:00:37.424Z,60.8
2016-08-10T01:00:47.430Z,60.6
2016-08-10T01:00:57.435Z,61
2016-08-10T01:01:07.438Z,60.5
2016-08-10T01:01:17.446Z,61
2016-08-10T01:01:27.451Z,60.4
2016-08-10T01:01:37.457Z,60.9
2016-08-10T01:01:47.465Z,60.9
2016-08-10T01:01:57.467Z,60.8
2016-08-10T01:02:06.744Z,60.9
2016-08-10T01:02:17.480Z,60.9
2016-08-10T01:02:27.485Z,60.9
2016-08-10T01:02:37.491Z,60.9
2016-08-10T01:02:47.495Z,61.1
2016-08-10T01:02:57.505Z,61
2016-08-10T01:03:07.505Z,60.9
2016-08-10T01:03:17.511Z,61
2016-08-10T01:03:27.519Z,60.9
2016-08-10T01:03:37.525Z,60.9
2016-08-10T01:03:47.531Z,61.1
2016-08-10T01:03:57.538Z,61
2016-08-10T01:04:07.538Z,60.9
2016-08-10T01:04:17.545Z,60.9
2016-08-10T01:04:27.553Z,61.1
2016-08-10T01:04:37.559Z,61.1
2016-08-10T01:04:47.564Z,61.2
2016-08-10T01:04:57.569Z,60.9
2016-08-10T01:05:07.575Z,60.9
2016-08-10T01:05:17.579Z,60.9
2016-08-10T01:05:27.585Z,60.7
2016-08-10T01:05:37.588Z,61
2016-08-10T01:05:47.595Z,61.1
2016-08-10T01:05:57.599Z,61.3
2016-08-10T01:06:07.606Z,61.2
2016-08-10T01:06:17.613Z,61.1
2016-08-10T01:06:27.619Z,61.1
2016-08-10T01:06:37.623Z,61
2016-08-10T01:06:47.628Z,61
2016-08-10T01:06:57.634Z,61.2
2016-08-10T01:07:07.639Z,61.2
2016-08-10T01:07:17.647Z,61.7
2016-08-10T01:07:27.653Z,61.6
2016-08-10T01:07:47.663Z,61.1
2016-08-10T01:07:57.667Z,61.8
2016-08-10T01:08:07.673Z,61.4
2016-08-10T01:08:17.677Z,61.6
2016-08-10T01:08:26.955Z,61.6
2016-08-10T01:08:37.688Z,61.6
2016-08-10T01:08:47.697Z,61.4
2016-08-10T01:08:57.699Z,61.6
2016-08-10T01:09:07.708Z,61.6
2016-08-10T01:09:16.981Z,61.7
2016-08-10T01:09:27.720Z,61.7
2016-08-10T01:09:37.721Z,61.7
2016-08-10T01:09:47.729Z,61.1
2016-08-10T01:09:57.732Z,61.2
2016-08-10T01:10:07.739Z,61.2
2016-08-10T01:10:17.745Z,61.7
2016-08-10T01:10:27.750Z,61.6
2016-08-10T01:10:37.755Z,61.7
2016-08-10T01:10:47.759Z,61.1
2016-08-10T01:10:57.765Z,61.8
2016-08-10T01:11:07.772Z,61.8
2016-08-10T01:11:17.775Z,61.4
2016-08-10T01:11:27.783Z,61.1
2016-08-10T01:11:37.787Z,61.2
2016-08-10T01:11:47.792Z,61.2
2016-08-10T01:11:57.798Z,61.7
2016-08-10T01:12:07.804Z,61.7
2016-08-10T01:12:17.814Z,61.6
2016-08-10T01:12:27.817Z,61.6
2016-08-10T01:12:37.825Z,61.6
2016-08-10T01:12:47.827Z,61.6
2016-08-10T01:12:57.829Z,61.5
2016-08-10T01:13:07.837Z,61.4
2016-08-10T01:13:17.841Z,61.4
2016-08-10T01:13:27.846Z,61.6
2016-08-10T01:13:37.856Z,61.6
2016-08-10T01:13:47.857Z,61.6
2016-08-10T01:13:57.865Z,61.5
2016-08-10T01:14:07.868Z,61.5
2016-08-10T01:14:17.878Z,61.6
2016-08-10T01:14:27.881Z,61.6
2016-08-10T01:14:37.889Z,61.6
2016-08-10T01:14:47.162Z,61.4
2016-08-10T01:14:57.899Z,61.3
2016-08-10T01:15:07.902Z,61.5
2016-08-10T01:15:17.907Z,61.2
2016-08-10T01:15:27.912Z,61.5
2016-08-10T01:15:37.918Z,61.2
2016-08-10T01:15:47.927Z,61.5
2016-08-10T01:15:57.203Z,61.5
2016-08-10T01:16:07.935Z,61.4
2016-08-10T01:16:17.947Z,61.5
2016-08-10T01:16:27.948Z,61.5
2016-08-10T01:16:37.220Z,61.6
2016-08-10T01:16:47.956Z,61.6
2016-08-10T01:16:57.963Z,61.5
2016-08-10T01:17:07.968Z,61.2
2016-08-10T01:17:17.975Z,61.5
2016-08-10T01:17:27.986Z,61.2
2016-08-10T01:17:37.985Z,61.4
2016-08-10T01:17:47.991Z,61.4
2016-08-10T01:17:57.998Z,61.4
2016-08-10T01:18:08.004Z,61.4
2016-08-10T01:18:18.007Z,61.4
2016-08-10T01:18:28.012Z,61.5
2016-08-10T01:18:38.023Z,61.5
2016-08-10T01:18:48.024Z,61.4
2016-08-10T01:18:58.030Z,61.4
2016-08-10T01:19:08.038Z,61.5
2016-08-10T01:19:18.040Z,61.5
2016-08-10T01:19:28.049Z,61.6
2016-08-10T01:19:38.051Z,61.5
2016-08-10T01:19:48.064Z,61.5
2016-08-10T01:19:58.062Z,61.5
2016-08-10T01:20:08.071Z,61.2
2016-08-10T01:20:18.073Z,61.2
2016-08-10T01:20:28.079Z,61.7
2016-08-10T01:20:38.085Z,61.5
2016-08-10T01:20:48.089Z,61.5
2016-08-10T01:20:58.095Z,61.4
2016-08-10T01:21:08.103Z,61.6
2016-08-10T01:21:17.376Z,61.5
2016-08-10T01:21:28.110Z,61.5
2016-08-10T01:21:38.117Z,61.6
2016-08-10T01:21:48.121Z,61.5
2016-08-10T01:21:58.127Z,61.5
2016-08-10T01:22:08.140Z,61.4
2016-08-10T01:22:18.139Z,61.6
2016-08-10T01:22:28.144Z,61.4
2016-08-10T01:22:48.155Z,61.6
2016-08-10T01:22:58.161Z,61.6
2016-08-10T01:23:08.167Z,61.5
2016-08-10T01:23:18.179Z,61.1
2016-08-10T01:23:28.177Z,61.5
2016-08-10T01:23:38.182Z,61.5
2016-08-10T01:23:48.187Z,61.8
2016-08-10T01:23:57.466Z,61.6
2016-08-10T01:24:08.198Z,61.3
2016-08-10T01:24:18.204Z,61.2
2016-08-10T01:24:28.212Z,61.5
2016-08-10T01:24:37.485Z,61.5
2016-08-10T01:24:48.222Z,61.4
2016-08-10T01:24:58.227Z,61.6
2016-08-10T01:25:08.230Z,61.6
2016-08-10T01:25:18.245Z,61.5
2016-08-10T01:25:28.244Z,61.8
2016-08-10T01:25:38.249Z,61.9
2016-08-10T01:25:48.254Z,61.6
2016-08-10T01:25:58.258Z,61.5
2016-08-10T01:26:08.265Z,61.3
2016-08-10T01:26:18.270Z,61.8
2016-08-10T01:26:28.273Z,61.4
2016-08-10T01:26:38.283Z,61.5
2016-08-10T01:26:48.286Z,61.4
2016-08-10T01:26:58.341Z,61.3
2016-08-10T01:27:08.305Z,61.5
2016-08-10T01:27:18.304Z,61.4
2016-08-10T01:27:28.308Z,61.6
2016-08-10T01:27:38.313Z,61.6
2016-08-10T01:27:48.323Z,61.6
2016-08-10T01:27:58.325Z,61.8
2016-08-10T01:28:08.330Z,61.8
2016-08-10T01:28:18.336Z,61.8
2016-08-10T01:28:28.343Z,61.5
2016-08-10T01:28:38.348Z,61.5
2016-08-10T01:28:48.356Z,61.5
2016-08-10T01:28:58.354Z,61.8
2016-08-10T01:29:08.363Z,61.4
2016-08-10T01:29:18.371Z,61.5
2016-08-10T01:29:28.381Z,61.6
2016-08-10T01:29:38.381Z,61.5
2016-08-10T01:29:48.384Z,61.5
2016-08-10T01:29:58.393Z,61.8
2016-08-10T01:30:08.401Z,61.5
2016-08-10T01:30:18.400Z,61.6
2016-08-10T01:30:28.411Z,61.6
2016-08-10T01:30:38.411Z,61.5
2016-08-10T01:30:47.688Z,61.7
2016-08-10T01:30:58.422Z,61.4
2016-08-10T01:31:08.433Z,61.8
2016-08-10T01:31:17.705Z,62
2016-08-10T01:31:28.441Z,61.7
2016-08-10T01:31:38.447Z,61.7
2016-08-10T01:31:48.451Z,61.3
2016-08-10T01:31:58.456Z,61.9
2016-08-10T01:32:08.462Z,61.4
2016-08-10T01:32:18.468Z,61.9
2016-08-10T01:32:28.474Z,61.4
2016-08-10T01:32:38.479Z,61.4
2016-08-10T01:32:48.487Z,61.4
2016-08-10T01:32:58.489Z,61.6
2016-08-10T01:33:08.498Z,61.3
2016-08-10T01:33:18.500Z,61.8
2016-08-10T01:33:28.507Z,61.8
2016-08-10T01:33:38.512Z,62
2016-08-10T01:33:48.518Z,61.9
2016-08-10T01:33:58.525Z,61.5
2016-08-10T01:34:08.527Z,61.5
2016-08-10T01:34:18.532Z,62
2016-08-10T01:34:27.809Z,61.9
2016-08-10T01:34:38.547Z,61.7
2016-08-10T01:34:48.551Z,61.6
2016-08-10T01:34:58.554Z,61.9
2016-08-10T01:35:08.562Z,61.7
2016-08-10T01:35:18.567Z,62
2016-08-10T01:35:28.573Z,61.7
2016-08-10T01:35:38.579Z,61.8
2016-08-10T01:35:48.585Z,61.8
2016-08-10T01:35:58.590Z,61.4
2016-08-10T01:36:08.594Z,61.5
2016-08-10T01:36:18.600Z,61.7
2016-08-10T01:36:28.605Z,61.9
2016-08-10T01:36:38.610Z,61.9
2016-08-10T01:36:48.617Z,61.9
2016-08-10T01:36:58.619Z,61.9
2016-08-10T01:37:08.625Z,61.9
2016-08-10T01:37:17.902Z,61.9
2016-08-10T01:37:28.638Z,61.9
2016-08-10T01:37:38.644Z,61.9
2016-08-10T01:37:58.656Z,61.8
2016-08-10T01:38:08.662Z,61.6
2016-08-10T01:38:18.664Z,62
2016-08-10T01:38:28.671Z,61.9
2016-08-10T01:38:38.678Z,62
2016-08-10T01:38:48.682Z,61.9
2016-08-10T01:38:58.688Z,61.9
2016-08-10T01:39:08.694Z,61.7
2016-08-10T01:39:18.695Z,62.3
2016-08-10T01:39:28.704Z,62.2
2016-08-10T01:39:38.709Z,62.2
2016-08-10T01:39:48.720Z,62.2
2016-08-10T01:39:58.720Z,62.1
2016-08-10T01:40:08.732Z,62
2016-08-10T01:40:18.734Z,62
2016-08-10T01:40:28.736Z,62
2016-08-10T01:40:38.747Z,62
2016-08-10T01:40:48.016Z,61.9
2016-08-10T01:40:58.751Z,61.9
2016-08-10T01:41:08.759Z,62
2016-08-10T01:41:18.764Z,62
2016-08-10T01:41:28.771Z,61.9
2016-08-10T01:41:38.774Z,61.9
2016-08-10T01:41:48.778Z,62
2016-08-10T01:41:58.786Z,61.8
2016-08-10T01:42:08.796Z,62.2
2016-08-10T01:42:18.796Z,62.2
2016-08-10T01:42:28.805Z,62.2
2016-08-10T01:42:38.807Z,61.9
2016-08-10T01:42:48.814Z,61.7
2016-08-10T01:42:58.818Z,62
2016-08-10T01:43:08.825Z,61.8
2016-08-10T01:43:18.828Z,62
2016-08-10T01:43:28.836Z,61.9
2016-08-10T01:43:38.839Z,61.8
2016-08-10T01:43:48.847Z,61.9
2016-08-10T01:43:58.852Z,62
2016-08-10T01:44:08.859Z,62
2016-08-10T01:44:18.866Z,62.2
2016-08-10T01:44:28.869Z,62.1
2016-08-10T01:44:38.874Z,62.2
2016-08-10T01:44:48.878Z,62.1
2016-08-10T01:44:58.887Z,62.2
2016-08-10T01:45:08.889Z,62.1
2016-08-10T01:45:18.892Z,62.2
2016-08-10T01:45:28.902Z,62.3
2016-08-10T01:45:38.905Z,62.2
2016-08-10T01:45:48.915Z,62.3
2016-08-10T01:45:58.920Z,62.2
2016-08-10T01:46:08.934Z,62.1
2016-08-10T01:46:18.931Z,62.3
2016-08-10T01:46:28.932Z,62.1
2016-08-10T01:46:38.940Z,62.3
2016-08-10T01:46:48.944Z,62.3
2016-08-10T01:46:58.951Z,62.3
2016-08-10T01:47:08.957Z,62.3
2016-08-10T01:47:18.961Z,62.2
2016-08-10T01:47:28.963Z,62.2
2016-08-10T01:47:38.971Z,62.5
2016-08-10T01:47:48.247Z,62.5
2016-08-10T01:47:58.982Z,62.5
2016-08-10T01:48:08.998Z,62.4
2016-08-10T01:48:18.995Z,62.3
2016-08-10T01:48:29.001Z,62.3
2016-08-10T01:48:39.006Z,62.2
2016-08-10T01:48:49.013Z,62.2
2016-08-10T01:48:59.014Z,62.3
2016-08-10T01:49:09.022Z,62.3
2016-08-10T01:49:19.027Z,62.6
2016-08-10T01:49:29.037Z,62.5
2016-08-10T01:49:39.038Z,62.4
2016-08-10T01:49:49.049Z,62.9
2016-08-10T01:49:59.050Z,62.9
2016-08-10T01:50:09.054Z,62.9
2016-08-10T01:50:19.059Z,62.6
2016-08-10T01:50:29.072Z,62.8
2016-08-10T01:50:39.069Z,62.9
2016-08-10T01:50:49.082Z,62.9
2016-08-10T01:50:59.079Z,62.8
2016-08-10T01:51:08.357Z,62.8
2016-08-10T01:51:19.095Z,62.8
2016-08-10T01:51:29.097Z,63
2016-08-10T01:51:39.102Z,62.9
2016-08-10T01:51:49.108Z,62.9
2016-08-10T01:51:59.113Z,62.4
2016-08-10T01:52:09.122Z,62.5
2016-08-10T01:52:19.124Z,62.7
2016-08-10T01:52:29.131Z,62.7
2016-08-10T01:52:39.138Z,62.8
2016-08-10T01:52:59.200Z,62.2
2016-08-10T01:53:09.154Z,62.3
2016-08-10T01:53:19.157Z,62.3
2016-08-10T01:53:28.433Z,62.3
2016-08-10T01:53:39.166Z,62.3
2016-08-10T01:53:49.173Z,62.4
2016-08-10T01:53:59.179Z,62.9
2016-08-10T01:54:09.184Z,62.5
2016-08-10T01:54:19.189Z,62.4
2016-08-10T01:54:29.197Z,62.9
2016-08-10T01:54:39.201Z,62.7
2016-08-10T01:54:49.207Z,62.2
2016-08-10T01:54:59.216Z,62.8
2016-08-10T01:55:09.218Z,62.7
2016-08-10T01:55:19.224Z,62.8
2016-08-10T01:55:29.226Z,62.6
2016-08-10T01:55:39.242Z,62.7
2016-08-10T01:55:49.239Z,62.8
2016-08-10T01:55:59.244Z,62.8
2016-08-10T01:56:09.252Z,62.8
2016-08-10T01:56:19.255Z,62.7
2016-08-10T01:56:29.262Z,62.8
2016-08-10T01:56:39.266Z,62.6
2016-08-10T01:56:49.272Z,62.8
2016-08-10T01:56:59.279Z,62.8
2016-08-10T01:57:08.554Z,62.8
2016-08-10T01:57:19.296Z,62.7
2016-08-10T01:57:29.295Z,62.6
2016-08-10T01:57:39.303Z,62.6
2016-08-10T01:57:49.304Z,62.8
2016-08-10T01:57:59.316Z,62.7
2016-08-10T01:58:09.314Z,62.5
2016-08-10T01:58:19.321Z,62.8
2016-08-10T01:58:29.326Z,62.8
2016-08-10T01:58:39.336Z,62.9
2016-08-10T01:58:49.339Z,62.5
2016-08-10T01:58:59.346Z,62.2
2016-08-10T01:59:09.348Z,62.1
2016-08-10T01:59:19.356Z,62.3
2016-08-10T01:59:29.360Z,62.4
2016-08-10T01:59:39.367Z,62.9
2016-08-10T01:59:49.370Z,62.9
2016-08-10T01:59:59.377Z,62.9
2016-08-10T02:00:09.382Z,62.9
2016-08-10T02:00:19.395Z,62.8
2016-08-10T02:00:29.391Z,62.5
2016-08-10T02:00:38.671Z,62.6
2016-08-10T02:00:49.407Z,62.7
2016-08-10T02:00:59.410Z,62.8
2016-08-10T02:01:09.423Z,62.7
2016-08-10T02:01:19.420Z,62.9
2016-08-10T02:01:29.430Z,62.8
2016-08-10T02:01:39.432Z,62.7
2016-08-10T02:01:49.437Z,62.8
2016-08-10T02:01:59.443Z,62.7
2016-08-10T02:02:09.447Z,62.8
2016-08-10T02:02:19.451Z,62.4
2016-08-10T02:02:29.462Z,62.9
2016-08-10T02:02:39.460Z,62.9
2016-08-10T02:02:49.469Z,62.9
2016-08-10T02:02:59.473Z,62.8
2016-08-10T02:03:09.478Z,62.7
2016-08-10T02:03:19.487Z,62.7
2016-08-10T02:03:29.492Z,62.9
2016-08-10T02:03:39.500Z,62.8
2016-08-10T02:03:49.504Z,62.9
2016-08-10T02:03:59.506Z,62.7
2016-08-10T02:04:09.512Z,62.8
2016-08-10T02:04:19.517Z,62.7
2016-08-10T02:04:29.530Z,62.9
2016-08-10T02:04:38.799Z,62.8
2016-08-10T02:04:49.532Z,62.5
2016-08-10T02:04:59.541Z,62.6
2016-08-10T02:05:09.544Z,62.8
2016-08-10T02:05:19.551Z,62.7
2016-08-10T02:05:29.557Z,62.9
2016-08-10T02:05:39.561Z,62.5
2016-08-10T02:05:49.567Z,62.5
2016-08-10T02:05:59.572Z,62.6
2016-08-10T02:06:09.580Z,62.9
2016-08-10T02:06:19.586Z,62.8
2016-08-10T02:06:29.591Z,62.9
2016-08-10T02:06:39.596Z,62.9
2016-08-10T02:06:49.602Z,62.8
2016-08-10T02:06:59.605Z,62.9
2016-08-10T02:07:09.609Z,62.7
2016-08-10T02:07:19.618Z,62.8
2016-08-10T02:07:29.622Z,62.9
2016-08-10T02:07:39.635Z,62.9
2016-08-10T02:07:48.904Z,62.5
2016-08-10T02:08:09.644Z,62.2
2016-08-10T02:08:18.919Z,62.6
2016-08-10T02:08:29.653Z,62.9
2016-08-10T02:08:39.663Z,62.9
2016-08-10T02:08:49.670Z,62.9
2016-08-10T02:08:59.672Z,62.7
2016-08-10T02:09:09.677Z,62.9
2016-08-10T02:09:19.684Z,62.6
2016-08-10T02:09:29.692Z,62.5
2016-08-10T02:09:38.963Z,62.8
2016-08-10T02:09:49.696Z,62.4
2016-08-10T02:09:59.705Z,62.8
2016-08-10T02:10:09.711Z,62.8
2016-08-10T02:10:19.715Z,62.5
2016-08-10T02:10:29.720Z,62.7
2016-08-10T02:10:39.726Z,62.5
2016-08-10T02:10:49.732Z,62.5
2016-08-10T02:10:59.739Z,62.2
2016-08-10T02:11:09.742Z,62.2
2016-08-10T02:11:19.747Z,62.2
2016-08-10T02:11:29.753Z,62.2
2016-08-10T02:11:39.756Z,62.3
2016-08-10T02:11:49.764Z,62.2
2016-08-10T02:11:59.769Z,62.1
2016-08-10T02:12:09.783Z,62.2
2016-08-10T02:12:19.784Z,62.2
2016-08-10T02:12:29.788Z,62.4
2016-08-10T02:12:39.791Z,62.3
2016-08-10T02:12:49.797Z,62.2
2016-08-10T02:12:59.803Z,62.3
2016-08-10T02:13:09.812Z,62.8
2016-08-10T02:13:19.812Z,62.5
2016-08-10T02:13:29.819Z,62.8
2016-08-10T02:13:39.095Z,62.7
2016-08-10T02:13:49.830Z,62.4
2016-08-10T02:13:59.835Z,62.5
2016-08-10T02:14:09.844Z,62.6
2016-08-10T02:14:19.844Z,62.9
2016-08-10T02:14:29.853Z,62.7
2016-08-10T02:14:39.858Z,62.5
2016-08-10T02:14:49.861Z,62.6
2016-08-10T02:14:59.868Z,62.1
2016-08-10T02:15:09.873Z,62.5
2016-08-10T02:15:19.880Z,62.5